Fayetteville Regional Grannis Field
KFAY : now visible

Airfield :











YOU CAN JOIN US ON...

 
LOGIN :

Register | Disclaimer

   EN    FR    IT 

 









Legend :    VFR   Marginal VFR   IFR   Intensive IFR   Very Intensive IFR
Visi :
Ceiling :
>= 8 km
>= 3000ft
5 to 8 km
1000 to 3000 ft
1500m to 5 km
500 to 1000 ft
800 to 1500m
200 to 500 ft
< 800m
< 200 ft
Symbols :   Thunderstorms  Fog  Heavy snow  Heavy precipitations  Wind > 20 kt






- Airport Elevation : 189 ft
- IATA code : FAY


KFAY - Fayetteville Regional Grannis Field

CURRENT METAR :
  • 271453Z 20009KT 10SM FEW055 FEW070 SCT085 28/23 A2989 RMK AO2 LTG DSNT NE RAB09E18 SLP115 P0001 60001 T02830233 51006

EXPIRED METARs :
  • 271353Z 22009KT 10SM FEW017 SCT050 28/23 A2989 RMK AO2 SLP114 T02780233
  • 271253Z 19007KT 10SM FEW049 FEW070 25/22 A2988 RMK AO2 SLP112 T02500222
  • 271153Z 16005KT 10SM SCT070 22/21 A2987 RMK AO2 SLP109 60007 70015 T02220206 10222 20200 53009
  • 271053Z 17004KT 10SM FEW045 SCT050 21/19 A2986 RMK AO2 SLP105 T02060194

TAF KFAY
Valid from the 27 at 12:00 until the 28 at 12:00 UTC


271120Z 2712/2812 17008KT P6SM SCT050
FM271600 21012G23KT P6SM SCT050 BKN150
FM272000 23014G26KT P6SM VCTS BKN050CB
KZDC FIR / North America



MET'MAP, your aeronautical weather chart ! - Copyright ORBIFLY December 2007 - Disclaimer

ORBIFLY MET'MAP TEAM :

Programming & Development : Alexandra Zaïnal
Original concept : Baudouin d'Aumeries
Technical & hardware support : Manuel Goepfert
Assistance : Marc-Olivier Méhu




SOURCES & CREDITS :

   NOAA       Earth
Advisory